sensor_id;sensor_type;location;lat;lon;timestamp;P1;durP1;ratioP1;P2;durP2;ratioP2
1799;SDS011;919;48.274;12.292;2023-04-15T00:01:35;7.23;;;6.30;;
1799;SDS011;919;48.274;12.292;2023-04-15T00:04:02;6.63;;;6.03;;
1799;SDS011;919;48.274;12.292;2023-04-15T00:06:30;8.53;;;6.60;;
1799;SDS011;919;48.274;12.292;2023-04-15T00:08:57;7.93;;;6.47;;
1799;SDS011;919;48.274;12.292;2023-04-15T00:11:23;7.50;;;6.80;;
1799;SDS011;919;48.274;12.292;2023-04-15T00:13:50;6.23;;;5.63;;
1799;SDS011;919;48.274;12.292;2023-04-15T00:16:17;6.60;;;5.97;;
1799;SDS011;919;48.274;12.292;2023-04-15T00:18:43;7.10;;;6.47;;
1799;SDS011;919;48.274;12.292;2023-04-15T00:21:10;7.63;;;6.90;;
1799;SDS011;919;48.274;12.292;2023-04-15T00:23:39;7.43;;;6.63;;
1799;SDS011;919;48.274;12.292;2023-04-15T00:26:05;8.70;;;6.60;;
1799;SDS011;919;48.274;12.292;2023-04-15T00:28:32;7.90;;;6.27;;
1799;SDS011;919;48.274;12.292;2023-04-15T00:30:59;6.30;;;5.70;;
1799;SDS011;919;48.274;12.292;2023-04-15T00:33:26;6.20;;;5.70;;
1799;SDS011;919;48.274;12.292;2023-04-15T00:35:53;6.97;;;5.77;;
1799;SDS011;919;48.274;12.292;2023-04-15T00:38:19;6.97;;;5.70;;
1799;SDS011;919;48.274;12.292;2023-04-15T00:40:47;7.70;;;6.90;;
1799;SDS011;919;48.274;12.292;2023-04-15T00:43:14;8.57;;;6.80;;
1799;SDS011;919;48.274;12.292;2023-04-15T00:45:41;7.00;;;6.30;;
1799;SDS011;919;48.274;12.292;2023-04-15T00:48:08;6.33;;;5.73;;
1799;SDS011;919;48.274;12.292;2023-04-15T00:50:35;9.90;;;6.93;;
1799;SDS011;919;48.274;12.292;2023-04-15T00:53:02;7.20;;;5.97;;
1799;SDS011;919;48.274;12.292;2023-04-15T00:55:30;6.17;;;5.57;;
1799;SDS011;919;48.274;12.292;2023-04-15T00:57:58;6.83;;;5.80;;
1799;SDS011;919;48.274;12.292;2023-04-15T01:00:25;5.87;;;5.17;;
1799;SDS011;919;48.274;12.292;2023-04-15T01:02:52;7.20;;;5.93;;
1799;SDS011;919;48.274;12.292;2023-04-15T01:05:18;8.63;;;6.57;;
1799;SDS011;919;48.274;12.292;2023-04-15T01:07:45;8.40;;;6.27;;
1799;SDS011;919;48.274;12.292;2023-04-15T01:10:12;7.33;;;5.70;;
1799;SDS011;919;48.274;12.292;2023-04-15T01:12:39;9.10;;;5.90;;
1799;SDS011;919;48.274;12.292;2023-04-15T01:15:08;6.93;;;5.47;;
1799;SDS011;919;48.274;12.292;2023-04-15T01:17:36;9.87;;;5.50;;
1799;SDS011;919;48.274;12.292;2023-04-15T01:20:02;5.57;;;4.93;;
1799;SDS011;919;48.274;12.292;2023-04-15T01:22:30;6.77;;;5.30;;
1799;SDS011;919;48.274;12.292;2023-04-15T01:25:00;6.20;;;5.20;;
1799;SDS011;919;48.274;12.292;2023-04-15T01:27:33;5.37;;;4.33;;
1799;SDS011;919;48.274;12.292;2023-04-15T01:30:00;5.43;;;4.50;;
1799;SDS011;919;48.274;12.292;2023-04-15T01:32:29;7.20;;;5.20;;
1799;SDS011;919;48.274;12.292;2023-04-15T01:34:56;5.00;;;4.50;;
1799;SDS011;919;48.274;12.292;2023-04-15T01:37:22;6.40;;;5.27;;
1799;SDS011;919;48.274;12.292;2023-04-15T01:39:50;4.40;;;4.00;;
1799;SDS011;919;48.274;12.292;2023-04-15T01:42:16;7.40;;;5.10;;
1799;SDS011;919;48.274;12.292;2023-04-15T01:44:44;6.50;;;5.00;;
1799;SDS011;919;48.274;12.292;2023-04-15T01:47:11;4.77;;;4.37;;
1799;SDS011;919;48.274;12.292;2023-04-15T01:49:38;6.33;;;4.50;;
1799;SDS011;919;48.274;12.292;2023-04-15T01:52:05;4.53;;;4.13;;
1799;SDS011;919;48.274;12.292;2023-04-15T01:54:33;7.83;;;5.03;;
1799;SDS011;919;48.274;12.292;2023-04-15T01:57:00;5.00;;;4.00;;
1799;SDS011;919;48.274;12.292;2023-04-15T01:59:27;8.70;;;4.77;;
1799;SDS011;919;48.274;12.292;2023-04-15T02:01:57;6.17;;;4.43;;
1799;SDS011;919;48.274;12.292;2023-04-15T02:04:24;5.20;;;4.70;;
1799;SDS011;919;48.274;12.292;2023-04-15T02:06:52;7.47;;;5.30;;
1799;SDS011;919;48.274;12.292;2023-04-15T02:09:18;8.83;;;6.23;;
1799;SDS011;919;48.274;12.292;2023-04-15T02:11:45;6.80;;;5.30;;
1799;SDS011;919;48.274;12.292;2023-04-15T02:14:12;7.93;;;5.80;;
1799;SDS011;919;48.274;12.292;2023-04-15T02:16:38;5.67;;;5.17;;
1799;SDS011;919;48.274;12.292;2023-04-15T02:19:06;6.10;;;4.50;;
1799;SDS011;919;48.274;12.292;2023-04-15T02:21:33;6.60;;;4.70;;
1799;SDS011;919;48.274;12.292;2023-04-15T02:24:00;6.40;;;5.10;;
1799;SDS011;919;48.274;12.292;2023-04-15T02:26:28;7.53;;;5.23;;
1799;SDS011;919;48.274;12.292;2023-04-15T02:28:56;6.40;;;4.50;;
1799;SDS011;919;48.274;12.292;2023-04-15T02:31:23;4.73;;;4.30;;
1799;SDS011;919;48.274;12.292;2023-04-15T02:33:50;7.30;;;5.10;;
1799;SDS011;919;48.274;12.292;2023-04-15T02:36:18;6.87;;;4.90;;
1799;SDS011;919;48.274;12.292;2023-04-15T02:38:45;5.33;;;4.83;;
1799;SDS011;919;48.274;12.292;2023-04-15T02:41:12;6.10;;;4.97;;
1799;SDS011;919;48.274;12.292;2023-04-15T02:43:39;7.93;;;5.70;;
1799;SDS011;919;48.274;12.292;2023-04-15T02:46:06;9.13;;;4.97;;
1799;SDS011;919;48.274;12.292;2023-04-15T02:48:32;5.47;;;4.73;;
1799;SDS011;919;48.274;12.292;2023-04-15T02:51:12;6.90;;;5.50;;
1799;SDS011;919;48.274;12.292;2023-04-15T02:53:42;8.40;;;4.90;;
1799;SDS011;919;48.274;12.292;2023-04-15T02:56:08;6.97;;;6.20;;
1799;SDS011;919;48.274;12.292;2023-04-15T02:58:35;12.40;;;5.70;;
1799;SDS011;919;48.274;12.292;2023-04-15T03:01:02;6.67;;;5.43;;
1799;SDS011;919;48.274;12.292;2023-04-15T03:03:29;9.27;;;6.10;;
1799;SDS011;919;48.274;12.292;2023-04-15T03:05:56;6.73;;;5.33;;
1799;SDS011;919;48.274;12.292;2023-04-15T03:08:23;7.80;;;5.70;;
1799;SDS011;919;48.274;12.292;2023-04-15T03:10:51;10.63;;;6.67;;
1799;SDS011;919;48.274;12.292;2023-04-15T03:13:18;6.53;;;5.93;;
1799;SDS011;919;48.274;12.292;2023-04-15T03:15:45;5.83;;;5.33;;
1799;SDS011;919;48.274;12.292;2023-04-15T03:18:12;7.17;;;5.40;;
1799;SDS011;919;48.274;12.292;2023-04-15T03:20:39;8.87;;;6.10;;
1799;SDS011;919;48.274;12.292;2023-04-15T03:23:06;6.90;;;5.70;;
1799;SDS011;919;48.274;12.292;2023-04-15T03:25:33;7.33;;;5.77;;
1799;SDS011;919;48.274;12.292;2023-04-15T03:28:02;7.33;;;6.20;;
1799;SDS011;919;48.274;12.292;2023-04-15T03:30:29;7.57;;;6.50;;
1799;SDS011;919;48.274;12.292;2023-04-15T03:32:56;7.37;;;6.10;;
1799;SDS011;919;48.274;12.292;2023-04-15T03:35:23;8.80;;;7.03;;
1799;SDS011;919;48.274;12.292;2023-04-15T03:37:49;9.80;;;7.20;;
1799;SDS011;919;48.274;12.292;2023-04-15T03:40:16;6.57;;;5.97;;
1799;SDS011;919;48.274;12.292;2023-04-15T03:42:43;12.93;;;6.23;;
1799;SDS011;919;48.274;12.292;2023-04-15T03:45:11;10.43;;;7.60;;
1799;SDS011;919;48.274;12.292;2023-04-15T03:47:38;10.43;;;6.57;;
1799;SDS011;919;48.274;12.292;2023-04-15T03:50:05;10.23;;;6.43;;
1799;SDS011;919;48.274;12.292;2023-04-15T03:52:33;8.93;;;7.77;;
1799;SDS011;919;48.274;12.292;2023-04-15T03:54:59;9.13;;;7.63;;
1799;SDS011;919;48.274;12.292;2023-04-15T03:57:26;9.70;;;7.40;;
1799;SDS011;919;48.274;12.292;2023-04-15T03:59:53;10.40;;;6.90;;
1799;SDS011;919;48.274;12.292;2023-04-15T04:02:21;7.93;;;7.13;;
1799;SDS011;919;48.274;12.292;2023-04-15T04:04:47;9.73;;;8.30;;
1799;SDS011;919;48.274;12.292;2023-04-15T04:07:14;9.00;;;7.83;;
1799;SDS011;919;48.274;12.292;2023-04-15T04:09:41;11.83;;;8.53;;
1799;SDS011;919;48.274;12.292;2023-04-15T04:12:08;8.70;;;7.17;;
1799;SDS011;919;48.274;12.292;2023-04-15T04:14:35;11.70;;;8.50;;
1799;SDS011;919;48.274;12.292;2023-04-15T04:17:02;9.20;;;7.40;;
1799;SDS011;919;48.274;12.292;2023-04-15T04:19:30;12.37;;;7.50;;
1799;SDS011;919;48.274;12.292;2023-04-15T04:21:56;13.67;;;7.40;;
1799;SDS011;919;48.274;12.292;2023-04-15T04:24:23;10.30;;;7.57;;
1799;SDS011;919;48.274;12.292;2023-04-15T04:26:50;9.60;;;8.10;;
1799;SDS011;919;48.274;12.292;2023-04-15T04:29:17;10.00;;;7.40;;
1799;SDS011;919;48.274;12.292;2023-04-15T04:31:43;11.00;;;8.37;;
1799;SDS011;919;48.274;12.292;2023-04-15T04:34:12;11.30;;;8.90;;
1799;SDS011;919;48.274;12.292;2023-04-15T04:36:40;12.77;;;8.63;;
1799;SDS011;919;48.274;12.292;2023-04-15T04:39:07;9.80;;;7.87;;
1799;SDS011;919;48.274;12.292;2023-04-15T04:41:34;8.60;;;7.70;;
1799;SDS011;919;48.274;12.292;2023-04-15T04:44:00;11.07;;;8.50;;
1799;SDS011;919;48.274;12.292;2023-04-15T04:46:27;13.83;;;9.23;;
1799;SDS011;919;48.274;12.292;2023-04-15T04:48:54;9.47;;;7.77;;
1799;SDS011;919;48.274;12.292;2023-04-15T04:51:21;11.40;;;8.40;;
1799;SDS011;919;48.274;12.292;2023-04-15T04:53:49;8.93;;;7.60;;
1799;SDS011;919;48.274;12.292;2023-04-15T04:56:15;10.90;;;7.57;;
1799;SDS011;919;48.274;12.292;2023-04-15T04:58:42;9.90;;;7.83;;
1799;SDS011;919;48.274;12.292;2023-04-15T05:01:09;9.00;;;8.07;;
1799;SDS011;919;48.274;12.292;2023-04-15T05:03:37;11.07;;;8.40;;
1799;SDS011;919;48.274;12.292;2023-04-15T05:06:03;9.83;;;8.27;;
1799;SDS011;919;48.274;12.292;2023-04-15T05:08:32;12.87;;;8.63;;
1799;SDS011;919;48.274;12.292;2023-04-15T05:11:00;8.77;;;7.57;;
1799;SDS011;919;48.274;12.292;2023-04-15T05:13:27;10.13;;;7.57;;
1799;SDS011;919;48.274;12.292;2023-04-15T05:15:55;9.50;;;8.03;;
1799;SDS011;919;48.274;12.292;2023-04-15T05:18:21;8.50;;;7.37;;
1799;SDS011;919;48.274;12.292;2023-04-15T05:20:48;11.40;;;7.80;;
1799;SDS011;919;48.274;12.292;2023-04-15T05:23:15;8.90;;;7.40;;
1799;SDS011;919;48.274;12.292;2023-04-15T05:25:42;9.13;;;7.10;;
1799;SDS011;919;48.274;12.292;2023-04-15T05:28:10;9.90;;;7.63;;
1799;SDS011;919;48.274;12.292;2023-04-15T05:30:37;9.17;;;7.83;;
1799;SDS011;919;48.274;12.292;2023-04-15T05:33:04;9.23;;;6.60;;
1799;SDS011;919;48.274;12.292;2023-04-15T05:35:31;12.33;;;7.53;;
1799;SDS011;919;48.274;12.292;2023-04-15T05:37:58;8.70;;;7.50;;
1799;SDS011;919;48.274;12.292;2023-04-15T05:40:25;10.50;;;7.60;;
1799;SDS011;919;48.274;12.292;2023-04-15T05:42:52;9.70;;;6.97;;
1799;SDS011;919;48.274;12.292;2023-04-15T05:45:20;8.90;;;7.40;;
1799;SDS011;919;48.274;12.292;2023-04-15T05:47:47;14.20;;;7.63;;
1799;SDS011;919;48.274;12.292;2023-04-15T05:50:15;10.10;;;7.83;;
1799;SDS011;919;48.274;12.292;2023-04-15T05:52:41;9.90;;;7.87;;
1799;SDS011;919;48.274;12.292;2023-04-15T05:55:09;9.70;;;7.90;;
1799;SDS011;919;48.274;12.292;2023-04-15T05:57:36;11.57;;;7.57;;
1799;SDS011;919;48.274;12.292;2023-04-15T06:00:04;9.70;;;7.90;;
1799;SDS011;919;48.274;12.292;2023-04-15T06:02:32;11.23;;;8.37;;
1799;SDS011;919;48.274;12.292;2023-04-15T06:04:59;8.43;;;7.27;;
1799;SDS011;919;48.274;12.292;2023-04-15T06:07:26;10.57;;;8.00;;
1799;SDS011;919;48.274;12.292;2023-04-15T06:09:52;8.20;;;7.30;;
1799;SDS011;919;48.274;12.292;2023-04-15T06:12:19;9.60;;;7.60;;
1799;SDS011;919;48.274;12.292;2023-04-15T06:14:46;9.10;;;7.50;;
1799;SDS011;919;48.274;12.292;2023-04-15T06:17:13;8.47;;;6.93;;
1799;SDS011;919;48.274;12.292;2023-04-15T06:19:43;10.50;;;9.00;;
1799;SDS011;919;48.274;12.292;2023-04-15T06:22:10;9.47;;;7.60;;
1799;SDS011;919;48.274;12.292;2023-04-15T06:24:37;11.33;;;7.93;;
1799;SDS011;919;48.274;12.292;2023-04-15T06:27:03;10.80;;;8.03;;
1799;SDS011;919;48.274;12.292;2023-04-15T06:29:30;10.70;;;7.93;;
1799;SDS011;919;48.274;12.292;2023-04-15T06:31:57;11.50;;;9.00;;
1799;SDS011;919;48.274;12.292;2023-04-15T06:34:23;9.90;;;7.30;;
1799;SDS011;919;48.274;12.292;2023-04-15T06:36:51;10.43;;;7.90;;
1799;SDS011;919;48.274;12.292;2023-04-15T06:39:18;9.63;;;7.47;;
1799;SDS011;919;48.274;12.292;2023-04-15T06:41:45;12.97;;;8.80;;
1799;SDS011;919;48.274;12.292;2023-04-15T06:44:12;9.47;;;7.80;;
1799;SDS011;919;48.274;12.292;2023-04-15T06:46:38;12.17;;;7.80;;
1799;SDS011;919;48.274;12.292;2023-04-15T06:49:05;8.20;;;7.00;;
1799;SDS011;919;48.274;12.292;2023-04-15T06:51:33;6.53;;;5.83;;
1799;SDS011;919;48.274;12.292;2023-04-15T06:54:02;11.00;;;7.87;;
1799;SDS011;919;48.274;12.292;2023-04-15T06:56:30;8.53;;;7.40;;
1799;SDS011;919;48.274;12.292;2023-04-15T06:58:57;15.97;;;7.37;;
1799;SDS011;919;48.274;12.292;2023-04-15T07:01:23;7.97;;;6.30;;
1799;SDS011;919;48.274;12.292;2023-04-15T07:03:50;8.37;;;6.50;;
1799;SDS011;919;48.274;12.292;2023-04-15T07:06:17;7.43;;;6.60;;
1799;SDS011;919;48.274;12.292;2023-04-15T07:08:44;7.70;;;6.10;;
1799;SDS011;919;48.274;12.292;2023-04-15T07:11:12;10.17;;;7.47;;
1799;SDS011;919;48.274;12.292;2023-04-15T07:13:39;9.70;;;7.27;;
1799;SDS011;919;48.274;12.292;2023-04-15T07:16:05;8.67;;;6.60;;
1799;SDS011;919;48.274;12.292;2023-04-15T07:18:32;8.53;;;7.27;;
1799;SDS011;919;48.274;12.292;2023-04-15T07:20:59;9.23;;;5.60;;
1799;SDS011;919;48.274;12.292;2023-04-15T07:23:26;10.40;;;7.13;;
1799;SDS011;919;48.274;12.292;2023-04-15T07:25:53;8.43;;;7.10;;
1799;SDS011;919;48.274;12.292;2023-04-15T07:28:22;6.93;;;6.23;;
1799;SDS011;919;48.274;12.292;2023-04-15T07:30:49;9.70;;;6.83;;
1799;SDS011;919;48.274;12.292;2023-04-15T07:33:15;7.30;;;6.60;;
1799;SDS011;919;48.274;12.292;2023-04-15T07:35:42;7.47;;;6.73;;
1799;SDS011;919;48.274;12.292;2023-04-15T07:38:09;7.53;;;6.17;;
1799;SDS011;919;48.274;12.292;2023-04-15T07:40:36;9.27;;;6.20;;
1799;SDS011;919;48.274;12.292;2023-04-15T07:43:04;8.77;;;6.23;;
1799;SDS011;919;48.274;12.292;2023-04-15T07:45:32;8.93;;;6.23;;
1799;SDS011;919;48.274;12.292;2023-04-15T07:47:59;6.83;;;6.13;;
1799;SDS011;919;48.274;12.292;2023-04-15T07:50:26;8.47;;;7.00;;
1799;SDS011;919;48.274;12.292;2023-04-15T07:52:53;9.17;;;6.53;;
1799;SDS011;919;48.274;12.292;2023-04-15T07:55:21;8.40;;;6.53;;
1799;SDS011;919;48.274;12.292;2023-04-15T07:57:48;6.97;;;6.27;;
1799;SDS011;919;48.274;12.292;2023-04-15T08:00:15;15.13;;;8.00;;
1799;SDS011;919;48.274;12.292;2023-04-15T08:02:43;9.93;;;6.20;;
1799;SDS011;919;48.274;12.292;2023-04-15T08:05:10;10.23;;;6.50;;
1799;SDS011;919;48.274;12.292;2023-04-15T08:07:38;8.37;;;6.47;;
1799;SDS011;919;48.274;12.292;2023-04-15T08:10:05;7.50;;;6.27;;
1799;SDS011;919;48.274;12.292;2023-04-15T08:12:32;8.37;;;6.83;;
1799;SDS011;919;48.274;12.292;2023-04-15T08:14:59;9.37;;;6.30;;
1799;SDS011;919;48.274;12.292;2023-04-15T08:17:26;7.17;;;6.17;;
1799;SDS011;919;48.274;12.292;2023-04-15T08:19:54;11.03;;;6.77;;
1799;SDS011;919;48.274;12.292;2023-04-15T08:22:21;9.87;;;6.97;;
1799;SDS011;919;48.274;12.292;2023-04-15T08:24:48;7.40;;;6.07;;
1799;SDS011;919;48.274;12.292;2023-04-15T08:27:15;9.30;;;7.20;;
1799;SDS011;919;48.274;12.292;2023-04-15T08:29:42;9.73;;;7.20;;
1799;SDS011;919;48.274;12.292;2023-04-15T08:32:09;8.20;;;7.07;;
1799;SDS011;919;48.274;12.292;2023-04-15T08:34:36;7.47;;;6.73;;
1799;SDS011;919;48.274;12.292;2023-04-15T08:37:04;7.27;;;5.90;;
1799;SDS011;919;48.274;12.292;2023-04-15T08:39:31;8.37;;;7.10;;
1799;SDS011;919;48.274;12.292;2023-04-15T08:41:59;9.37;;;6.83;;
1799;SDS011;919;48.274;12.292;2023-04-15T08:44:27;6.50;;;5.90;;
1799;SDS011;919;48.274;12.292;2023-04-15T08:46:56;7.10;;;6.40;;
1799;SDS011;919;48.274;12.292;2023-04-15T08:49:27;7.70;;;5.60;;
1799;SDS011;919;48.274;12.292;2023-04-15T08:51:54;7.93;;;5.83;;
1799;SDS011;919;48.274;12.292;2023-04-15T08:54:25;6.90;;;6.13;;
1799;SDS011;919;48.274;12.292;2023-04-15T08:56:52;7.63;;;6.63;;
1799;SDS011;919;48.274;12.292;2023-04-15T08:59:19;6.63;;;5.97;;
1799;SDS011;919;48.274;12.292;2023-04-15T09:01:47;7.60;;;6.60;;
1799;SDS011;919;48.274;12.292;2023-04-15T09:04:14;9.30;;;6.80;;
1799;SDS011;919;48.274;12.292;2023-04-15T09:06:42;6.27;;;5.37;;
1799;SDS011;919;48.274;12.292;2023-04-15T09:09:09;7.07;;;6.30;;
1799;SDS011;919;48.274;12.292;2023-04-15T09:11:39;7.03;;;6.33;;
1799;SDS011;919;48.274;12.292;2023-04-15T09:14:06;6.70;;;5.77;;
1799;SDS011;919;48.274;12.292;2023-04-15T09:19:24;7.47;;;5.97;;
1799;SDS011;919;48.274;12.292;2023-04-15T09:21:52;6.77;;;6.07;;
1799;SDS011;919;48.274;12.292;2023-04-15T09:24:20;7.50;;;6.00;;
1799;SDS011;919;48.274;12.292;2023-04-15T09:26:50;8.00;;;6.20;;
1799;SDS011;919;48.274;12.292;2023-04-15T09:29:18;6.80;;;6.10;;
1799;SDS011;919;48.274;12.292;2023-04-15T09:31:45;7.50;;;5.40;;
1799;SDS011;919;48.274;12.292;2023-04-15T09:34:12;7.20;;;5.20;;
1799;SDS011;919;48.274;12.292;2023-04-15T09:36:50;9.43;;;7.27;;
1799;SDS011;919;48.274;12.292;2023-04-15T09:39:18;8.17;;;5.97;;
1799;SDS011;919;48.274;12.292;2023-04-15T09:41:45;6.13;;;5.50;;
1799;SDS011;919;48.274;12.292;2023-04-15T09:44:22;6.70;;;5.47;;
1799;SDS011;919;48.274;12.292;2023-04-15T09:46:49;8.80;;;5.63;;
1799;SDS011;919;48.274;12.292;2023-04-15T09:49:16;16.63;;;7.03;;
1799;SDS011;919;48.274;12.292;2023-04-15T09:51:43;9.93;;;6.03;;
1799;SDS011;919;48.274;12.292;2023-04-15T09:54:10;7.03;;;6.30;;
1799;SDS011;919;48.274;12.292;2023-04-15T09:56:37;10.87;;;6.30;;
1799;SDS011;919;48.274;12.292;2023-04-15T09:59:06;8.53;;;6.77;;
1799;SDS011;919;48.274;12.292;2023-04-15T10:01:34;7.33;;;6.53;;
1799;SDS011;919;48.274;12.292;2023-04-15T10:04:02;7.40;;;6.20;;
1799;SDS011;919;48.274;12.292;2023-04-15T10:06:29;7.80;;;6.63;;
1799;SDS011;919;48.274;12.292;2023-04-15T10:08:57;7.00;;;6.30;;
1799;SDS011;919;48.274;12.292;2023-04-15T10:11:25;8.33;;;5.83;;
1799;SDS011;919;48.274;12.292;2023-04-15T10:13:54;7.10;;;6.07;;
1799;SDS011;919;48.274;12.292;2023-04-15T10:16:22;7.60;;;6.60;;
1799;SDS011;919;48.274;12.292;2023-04-15T10:18:55;9.07;;;6.63;;
1799;SDS011;919;48.274;12.292;2023-04-15T10:21:22;7.83;;;5.77;;
1799;SDS011;919;48.274;12.292;2023-04-15T10:23:49;8.17;;;6.63;;
1799;SDS011;919;48.274;12.292;2023-04-15T10:26:16;7.60;;;6.13;;
1799;SDS011;919;48.274;12.292;2023-04-15T10:28:43;7.07;;;6.00;;
1799;SDS011;919;48.274;12.292;2023-04-15T10:31:12;6.83;;;6.03;;
1799;SDS011;919;48.274;12.292;2023-04-15T10:33:40;6.77;;;5.60;;
1799;SDS011;919;48.274;12.292;2023-04-15T10:36:08;9.27;;;6.40;;
1799;SDS011;919;48.274;12.292;2023-04-15T10:38:37;8.77;;;6.67;;
1799;SDS011;919;48.274;12.292;2023-04-15T10:41:14;6.30;;;5.70;;
1799;SDS011;919;48.274;12.292;2023-04-15T10:43:46;7.27;;;5.83;;
1799;SDS011;919;48.274;12.292;2023-04-15T10:46:17;6.33;;;5.60;;
1799;SDS011;919;48.274;12.292;2023-04-15T10:48:48;7.70;;;6.40;;
1799;SDS011;919;48.274;12.292;2023-04-15T10:51:16;6.60;;;5.77;;
1799;SDS011;919;48.274;12.292;2023-04-15T10:53:55;6.20;;;5.70;;
1799;SDS011;919;48.274;12.292;2023-04-15T10:56:23;6.43;;;5.80;;
1799;SDS011;919;48.274;12.292;2023-04-15T10:58:50;6.13;;;5.20;;
1799;SDS011;919;48.274;12.292;2023-04-15T11:01:18;5.37;;;4.87;;
1799;SDS011;919;48.274;12.292;2023-04-15T11:03:47;7.67;;;5.07;;
1799;SDS011;919;48.274;12.292;2023-04-15T11:06:16;5.87;;;5.27;;
1799;SDS011;919;48.274;12.292;2023-04-15T11:08:53;5.30;;;4.47;;
1799;SDS011;919;48.274;12.292;2023-04-15T11:11:22;5.13;;;4.60;;
1799;SDS011;919;48.274;12.292;2023-04-15T11:13:49;6.80;;;5.87;;
1799;SDS011;919;48.274;12.292;2023-04-15T11:16:18;5.07;;;4.47;;
1799;SDS011;919;48.274;12.292;2023-04-15T11:18:52;5.53;;;4.53;;
1799;SDS011;919;48.274;12.292;2023-04-15T11:21:21;6.13;;;5.00;;
1799;SDS011;919;48.274;12.292;2023-04-15T11:23:50;6.83;;;5.63;;
1799;SDS011;919;48.274;12.292;2023-04-15T11:26:16;5.83;;;5.23;;
1799;SDS011;919;48.274;12.292;2023-04-15T11:28:44;6.90;;;5.80;;
1799;SDS011;919;48.274;12.292;2023-04-15T11:31:12;6.70;;;4.50;;
1799;SDS011;919;48.274;12.292;2023-04-15T11:33:52;5.90;;;5.07;;
1799;SDS011;919;48.274;12.292;2023-04-15T11:36:21;6.10;;;5.40;;
1799;SDS011;919;48.274;12.292;2023-04-15T11:38:51;5.40;;;4.30;;
1799;SDS011;919;48.274;12.292;2023-04-15T11:41:19;6.17;;;5.60;;
1799;SDS011;919;48.274;12.292;2023-04-15T11:43:46;5.80;;;5.07;;
1799;SDS011;919;48.274;12.292;2023-04-15T11:46:13;5.63;;;4.73;;
1799;SDS011;919;48.274;12.292;2023-04-15T11:48:41;5.53;;;4.90;;
1799;SDS011;919;48.274;12.292;2023-04-15T11:51:09;5.73;;;4.97;;
1799;SDS011;919;48.274;12.292;2023-04-15T11:53:39;6.33;;;5.70;;
1799;SDS011;919;48.274;12.292;2023-04-15T11:56:08;6.87;;;4.80;;
1799;SDS011;919;48.274;12.292;2023-04-15T11:58:36;5.10;;;4.37;;
1799;SDS011;919;48.274;12.292;2023-04-15T12:01:04;6.07;;;4.90;;
1799;SDS011;919;48.274;12.292;2023-04-15T12:03:35;7.10;;;4.43;;
1799;SDS011;919;48.274;12.292;2023-04-15T12:06:04;5.40;;;3.87;;
1799;SDS011;919;48.274;12.292;2023-04-15T12:08:50;4.97;;;4.57;;
1799;SDS011;919;48.274;12.292;2023-04-15T12:11:28;8.33;;;4.23;;
1799;SDS011;919;48.274;12.292;2023-04-15T12:13:57;4.60;;;4.20;;
1799;SDS011;919;48.274;12.292;2023-04-15T12:16:27;6.50;;;4.70;;
1799;SDS011;919;48.274;12.292;2023-04-15T12:18:55;4.80;;;4.30;;
1799;SDS011;919;48.274;12.292;2023-04-15T12:21:23;4.90;;;4.17;;
1799;SDS011;919;48.274;12.292;2023-04-15T12:23:53;6.17;;;3.77;;
1799;SDS011;919;48.274;12.292;2023-04-15T12:26:24;5.13;;;4.27;;
1799;SDS011;919;48.274;12.292;2023-04-15T12:28:52;5.63;;;4.30;;
1799;SDS011;919;48.274;12.292;2023-04-15T12:31:20;5.30;;;3.80;;
1799;SDS011;919;48.274;12.292;2023-04-15T12:33:47;5.30;;;4.50;;
1799;SDS011;919;48.274;12.292;2023-04-15T12:36:14;5.40;;;4.43;;
1799;SDS011;919;48.274;12.292;2023-04-15T12:38:41;7.77;;;4.97;;
1799;SDS011;919;48.274;12.292;2023-04-15T12:41:09;6.80;;;4.30;;
1799;SDS011;919;48.274;12.292;2023-04-15T12:43:36;5.17;;;4.17;;
1799;SDS011;919;48.274;12.292;2023-04-15T12:46:02;5.50;;;4.53;;
1799;SDS011;919;48.274;12.292;2023-04-15T12:48:30;5.57;;;4.23;;
1799;SDS011;919;48.274;12.292;2023-04-15T12:50:57;4.13;;;3.73;;
1799;SDS011;919;48.274;12.292;2023-04-15T12:53:24;6.03;;;5.20;;
1799;SDS011;919;48.274;12.292;2023-04-15T12:55:52;4.90;;;4.40;;
1799;SDS011;919;48.274;12.292;2023-04-15T12:58:21;8.20;;;5.60;;
1799;SDS011;919;48.274;12.292;2023-04-15T13:00:47;9.53;;;5.20;;
1799;SDS011;919;48.274;12.292;2023-04-15T13:03:14;4.80;;;4.40;;
1799;SDS011;919;48.274;12.292;2023-04-15T13:05:41;8.50;;;4.73;;
1799;SDS011;919;48.274;12.292;2023-04-15T13:08:08;4.20;;;3.90;;
1799;SDS011;919;48.274;12.292;2023-04-15T13:10:35;3.63;;;3.33;;
1799;SDS011;919;48.274;12.292;2023-04-15T13:13:02;5.00;;;4.13;;
1799;SDS011;919;48.274;12.292;2023-04-15T13:15:31;5.70;;;4.20;;
1799;SDS011;919;48.274;12.292;2023-04-15T13:17:57;4.43;;;4.03;;
1799;SDS011;919;48.274;12.292;2023-04-15T13:20:24;4.90;;;4.40;;
1799;SDS011;919;48.274;12.292;2023-04-15T13:22:51;5.00;;;4.50;;
1799;SDS011;919;48.274;12.292;2023-04-15T13:25:19;5.60;;;4.93;;
1799;SDS011;919;48.274;12.292;2023-04-15T13:27:46;5.17;;;4.67;;
1799;SDS011;919;48.274;12.292;2023-04-15T13:30:13;8.20;;;5.10;;
1799;SDS011;919;48.274;12.292;2023-04-15T13:32:41;6.30;;;5.20;;
1799;SDS011;919;48.274;12.292;2023-04-15T13:35:08;5.70;;;5.10;;
1799;SDS011;919;48.274;12.292;2023-04-15T13:37:34;6.07;;;4.83;;
1799;SDS011;919;48.274;12.292;2023-04-15T13:40:01;5.93;;;5.10;;
1799;SDS011;919;48.274;12.292;2023-04-15T13:42:31;8.40;;;4.70;;
1799;SDS011;919;48.274;12.292;2023-04-15T13:44:58;7.67;;;5.30;;
1799;SDS011;919;48.274;12.292;2023-04-15T13:47:24;5.70;;;5.03;;
1799;SDS011;919;48.274;12.292;2023-04-15T13:49:53;6.93;;;5.53;;
1799;SDS011;919;48.274;12.292;2023-04-15T13:52:20;6.10;;;5.40;;
1799;SDS011;919;48.274;12.292;2023-04-15T13:54:47;5.83;;;5.20;;
1799;SDS011;919;48.274;12.292;2023-04-15T13:57:14;6.70;;;4.70;;
1799;SDS011;919;48.274;12.292;2023-04-15T13:59:41;5.67;;;5.07;;
1799;SDS011;919;48.274;12.292;2023-04-15T14:02:08;8.80;;;5.13;;
1799;SDS011;919;48.274;12.292;2023-04-15T14:04:34;5.20;;;4.67;;
1799;SDS011;919;48.274;12.292;2023-04-15T14:07:03;5.50;;;4.37;;
1799;SDS011;919;48.274;12.292;2023-04-15T14:09:30;5.80;;;4.70;;
1799;SDS011;919;48.274;12.292;2023-04-15T14:11:57;6.97;;;5.63;;
1799;SDS011;919;48.274;12.292;2023-04-15T14:14:25;5.00;;;4.10;;
1799;SDS011;919;48.274;12.292;2023-04-15T14:16:53;4.97;;;4.57;;
1799;SDS011;919;48.274;12.292;2023-04-15T14:19:21;5.30;;;4.80;;
1799;SDS011;919;48.274;12.292;2023-04-15T14:21:48;4.37;;;3.93;;
1799;SDS011;919;48.274;12.292;2023-04-15T14:24:16;5.40;;;4.00;;
1799;SDS011;919;48.274;12.292;2023-04-15T14:26:43;6.40;;;4.60;;
1799;SDS011;919;48.274;12.292;2023-04-15T14:29:10;4.60;;;4.00;;
1799;SDS011;919;48.274;12.292;2023-04-15T14:31:37;4.97;;;4.40;;
1799;SDS011;919;48.274;12.292;2023-04-15T14:34:04;4.13;;;3.73;;
1799;SDS011;919;48.274;12.292;2023-04-15T14:36:31;4.20;;;3.80;;
1799;SDS011;919;48.274;12.292;2023-04-15T14:38:58;3.60;;;3.30;;
1799;SDS011;919;48.274;12.292;2023-04-15T14:41:26;3.80;;;3.43;;
1799;SDS011;919;48.274;12.292;2023-04-15T14:43:53;3.30;;;3.10;;
1799;SDS011;919;48.274;12.292;2023-04-15T14:46:20;3.27;;;2.97;;
1799;SDS011;919;48.274;12.292;2023-04-15T14:48:48;3.47;;;3.17;;
1799;SDS011;919;48.274;12.292;2023-04-15T14:51:15;3.90;;;3.57;;
1799;SDS011;919;48.274;12.292;2023-04-15T14:53:42;3.10;;;2.80;;
1799;SDS011;919;48.274;12.292;2023-04-15T14:56:09;3.93;;;3.50;;
1799;SDS011;919;48.274;12.292;2023-04-15T14:58:37;3.63;;;2.73;;
1799;SDS011;919;48.274;12.292;2023-04-15T15:01:04;3.93;;;3.13;;
1799;SDS011;919;48.274;12.292;2023-04-15T15:03:31;2.80;;;2.60;;
1799;SDS011;919;48.274;12.292;2023-04-15T15:05:58;3.60;;;2.80;;
1799;SDS011;919;48.274;12.292;2023-04-15T15:08:25;4.47;;;3.07;;
1799;SDS011;919;48.274;12.292;2023-04-15T15:10:52;4.20;;;2.67;;
1799;SDS011;919;48.274;12.292;2023-04-15T15:13:19;3.07;;;2.83;;
1799;SDS011;919;48.274;12.292;2023-04-15T15:15:47;4.07;;;3.20;;
1799;SDS011;919;48.274;12.292;2023-04-15T15:18:14;7.57;;;4.07;;